createdAt,value
2022-08-28T00:05:54.984Z,9.57
2022-08-28T00:13:28.810Z,12.95
2022-08-28T00:21:04.459Z,10.40
2022-08-28T00:28:38.285Z,15.25
2022-08-28T00:36:13.434Z,9.05
2022-08-28T00:43:49.883Z,11.35
2022-08-28T00:51:43.339Z,10.40
2022-08-28T00:59:19.642Z,12.57
2022-08-28T01:06:58.034Z,16.02
2022-08-28T01:14:34.692Z,15.35
2022-08-28T01:22:19.488Z,15.05
2022-08-28T01:29:55.321Z,19.43
2022-08-28T01:37:29.673Z,19.45
2022-08-28T01:45:05.316Z,14.70
2022-08-28T01:52:39.254Z,17.20
2022-08-28T02:00:16.671Z,22.47
2022-08-28T02:07:50.470Z,12.60
2022-08-28T02:15:26.570Z,13.23
2022-08-28T02:23:00.994Z,16.30
2022-08-28T02:30:36.558Z,12.60
2022-08-28T02:38:11.560Z,9.98
2022-08-28T02:45:48.328Z,8.52
2022-08-28T02:53:22.711Z,9.77
2022-08-28T03:00:57.977Z,10.10
2022-08-28T03:08:34.021Z,11.88
2022-08-28T03:16:09.609Z,11.95
2022-08-28T03:23:43.420Z,11.68
2022-08-28T03:31:21.195Z,12.20
2022-08-28T03:38:57.363Z,22.55
2022-08-28T03:46:33.920Z,7.22
2022-08-28T03:54:07.684Z,8.50
2022-08-28T04:01:43.175Z,12.73
2022-08-28T04:09:16.991Z,8.07
2022-08-28T04:16:52.156Z,8.90
2022-08-28T04:24:25.996Z,12.10
2022-08-28T04:32:01.330Z,7.28
2022-08-28T04:39:35.355Z,9.88
2022-08-28T04:47:10.755Z,10.50
2022-08-28T04:54:44.774Z,6.05
2022-08-28T05:02:20.032Z,7.05
2022-08-28T05:09:54.665Z,10.07
2022-08-28T05:17:32.153Z,22.13
2022-08-28T05:25:06.447Z,11.18
2022-08-28T05:32:43.124Z,9.33
2022-08-28T05:40:18.196Z,8.60
2022-08-28T05:47:53.514Z,13.70
2022-08-28T05:55:27.332Z,12.40
2022-08-28T06:03:02.630Z,14.52
2022-08-28T06:10:37.244Z,13.38
2022-08-28T06:18:14.996Z,17.17
2022-08-28T06:25:51.812Z,14.10
2022-08-28T06:33:27.178Z,12.32
2022-08-28T06:41:01.151Z,21.30
2022-08-28T06:48:36.314Z,11.23
2022-08-28T06:56:13.726Z,14.82
2022-08-28T07:04:04.054Z,12.27
2022-08-28T07:11:38.690Z,17.25
2022-08-28T07:19:14.099Z,9.20
2022-08-28T07:26:49.158Z,12.18
2022-08-28T07:42:01.225Z,13.77
2022-08-28T07:49:36.860Z,14.13
2022-08-28T07:57:11.035Z,13.50
2022-08-28T08:04:46.180Z,12.47
2022-08-28T08:12:20.566Z,13.20
2022-08-28T08:19:55.903Z,18.77
2022-08-28T08:27:29.713Z,16.35
2022-08-28T08:35:05.255Z,13.52
2022-08-28T08:42:39.268Z,10.75
2022-08-28T08:50:24.112Z,11.07
2022-08-28T08:58:03.749Z,20.37
2022-08-28T09:05:48.471Z,13.07
2022-08-28T09:13:27.315Z,9.60
2022-08-28T09:21:02.891Z,11.85
2022-08-28T09:28:40.782Z,11.10
2022-08-28T09:36:29.522Z,13.77
2022-08-28T09:44:04.249Z,15.05
2022-08-28T09:51:39.930Z,11.82
2022-08-28T09:59:16.022Z,11.70
2022-08-28T10:06:54.779Z,11.35
2022-08-28T10:14:45.546Z,10.77
2022-08-28T10:22:34.588Z,14.75
2022-08-28T10:30:14.408Z,15.70
2022-08-28T10:38:01.326Z,18.08
2022-08-28T10:45:36.207Z,13.75
2022-08-28T10:53:16.719Z,12.20
2022-08-28T11:00:51.481Z,12.43
2022-08-28T11:08:30.786Z,13.33
2022-08-28T11:16:13.456Z,13.52
2022-08-28T11:23:52.666Z,12.52
2022-08-28T11:31:36.595Z,10.15
2022-08-28T11:39:22.218Z,12.13
2022-08-28T11:46:58.880Z,13.43
2022-08-28T11:54:45.830Z,14.77
2022-08-28T12:02:49.198Z,11.85
2022-08-28T12:10:55.007Z,10.45
2022-08-28T12:19:04.910Z,12.60
2022-08-28T12:26:46.150Z,13.88
2022-08-28T12:34:30.252Z,10.90
2022-08-28T12:42:05.843Z,13.50
2022-08-28T12:49:39.661Z,11.75
2022-08-28T12:57:18.446Z,8.48
2022-08-28T13:04:55.824Z,15.73
2022-08-28T13:12:55.245Z,10.73
2022-08-28T13:20:31.310Z,9.18
2022-08-28T13:28:14.456Z,10.85
2022-08-28T13:35:48.734Z,9.45
2022-08-28T13:43:25.505Z,9.10
2022-08-28T13:51:05.022Z,10.60
2022-08-28T13:58:42.813Z,10.48
2022-08-28T14:06:18.331Z,6.80
2022-08-28T14:13:55.318Z,11.55
2022-08-28T14:21:30.199Z,9.00
2022-08-28T14:29:07.693Z,10.67
2022-08-28T14:36:43.106Z,9.50
2022-08-28T14:44:18.710Z,6.68
2022-08-28T14:51:54.129Z,10.82
2022-08-28T14:59:32.098Z,11.00
2022-08-28T15:07:08.444Z,7.82
2022-08-28T15:14:55.011Z,12.25
2022-08-28T15:22:31.123Z,7.38
2022-08-28T15:30:07.433Z,9.80
2022-08-28T15:37:41.266Z,10.32
2022-08-28T15:45:18.231Z,9.60
2022-08-28T15:52:53.451Z,8.45
2022-08-28T16:00:28.868Z,8.52
2022-08-28T16:08:02.945Z,8.13
2022-08-28T16:15:38.043Z,7.93
2022-08-28T16:23:14.015Z,3.53
2022-08-28T16:30:49.202Z,10.90
2022-08-28T16:38:23.226Z,6.32
2022-08-28T16:45:58.425Z,6.97
2022-08-28T16:53:32.664Z,7.15
2022-08-28T17:01:08.629Z,6.00
2022-08-28T17:08:45.002Z,2.60
2022-08-28T17:16:21.774Z,5.30
2022-08-28T17:23:57.110Z,4.07
2022-08-28T17:31:32.750Z,4.68
2022-08-28T17:39:09.152Z,4.50
2022-08-28T17:46:44.376Z,5.20
2022-08-28T17:54:21.740Z,6.03
2022-08-28T18:01:57.001Z,3.65
2022-08-28T18:09:30.882Z,5.25
2022-08-28T18:17:06.260Z,3.65
2022-08-28T18:24:43.913Z,4.72
2022-08-28T18:32:19.198Z,4.57
2022-08-28T18:39:52.966Z,5.90
2022-08-28T18:47:30.102Z,4.22
2022-08-28T18:55:05.190Z,3.50
2022-08-28T19:02:41.799Z,3.35
2022-08-28T19:10:32.692Z,4.88
2022-08-28T19:18:08.639Z,4.40
2022-08-28T19:25:42.512Z,4.53
2022-08-28T19:33:17.995Z,3.53
2022-08-28T19:40:51.794Z,3.30
2022-08-28T19:48:27.121Z,4.65
2022-08-28T19:56:01.064Z,5.40
2022-08-28T20:03:37.316Z,6.30
2022-08-28T20:11:16.510Z,6.85
2022-08-28T20:18:51.755Z,4.88
2022-08-28T20:26:25.616Z,4.43
2022-08-28T20:34:03.837Z,3.55
2022-08-28T20:41:42.466Z,6.20
2022-08-28T20:49:18.099Z,5.40
2022-08-28T20:56:52.621Z,4.35
2022-08-28T21:04:30.384Z,5.77
2022-08-28T21:12:04.706Z,4.25
2022-08-28T21:19:40.715Z,7.03
2022-08-28T21:27:14.707Z,5.00
2022-08-28T21:34:54.550Z,5.32
2022-08-28T21:42:28.912Z,5.57
2022-08-28T21:50:04.152Z,4.57
2022-08-28T21:57:38.787Z,4.55
2022-08-28T22:05:14.260Z,5.03
2022-08-28T22:12:48.059Z,5.22
2022-08-28T22:20:23.246Z,5.75
2022-08-28T22:27:57.135Z,6.70
2022-08-28T22:35:32.419Z,5.85
2022-08-28T22:43:06.162Z,5.28
2022-08-28T22:50:42.229Z,6.97
2022-08-28T22:58:16.112Z,4.55
2022-08-28T23:05:51.310Z,6.50
2022-08-28T23:13:25.116Z,5.82
2022-08-28T23:21:01.499Z,5.60
2022-08-28T23:28:35.294Z,7.25
2022-08-28T23:36:11.658Z,6.43
2022-08-28T23:43:45.441Z,6.10
2022-08-28T23:51:21.921Z,4.88
2022-08-28T23:58:55.837Z,5.35
